createdAt,value
2023-04-15T00:02:20.397Z,42
2023-04-15T00:07:22.442Z,42
2023-04-15T00:12:25.307Z,41
2023-04-15T00:17:33.664Z,41
2023-04-15T00:22:36.470Z,41
2023-04-15T00:27:38.594Z,41
2023-04-15T00:32:40.910Z,40
2023-04-15T00:37:45.563Z,40
2023-04-15T00:42:45.467Z,40
2023-04-15T00:47:48.570Z,40
2023-04-15T00:52:50.785Z,40
2023-04-15T00:57:53.055Z,40
2023-04-15T01:02:55.401Z,40
2023-04-15T01:07:58.916Z,40
2023-04-15T01:13:01.006Z,40
2023-04-15T01:18:07.727Z,40
2023-04-15T01:23:09.980Z,40
2023-04-15T01:28:12.008Z,40
2023-04-15T01:33:14.142Z,40
2023-04-15T01:38:16.312Z,41
2023-04-15T01:43:19.900Z,41
2023-04-15T01:48:22.757Z,41
2023-04-15T01:53:24.903Z,42
2023-04-15T01:58:27.760Z,42
2023-04-15T02:03:30.019Z,42
2023-04-15T02:08:32.062Z,43
2023-04-15T02:13:34.237Z,43
2023-04-15T02:18:37.145Z,43
2023-04-15T02:23:39.303Z,42
2023-04-15T02:28:41.415Z,42
2023-04-15T02:33:43.532Z,42
2023-04-15T02:38:46.426Z,42
2023-04-15T02:43:49.478Z,42
2023-04-15T02:48:51.566Z,42
2023-04-15T02:53:53.886Z,41
2023-04-15T02:58:56.143Z,41
2023-04-15T03:03:59.216Z,41
2023-04-15T03:09:02.286Z,41
2023-04-15T03:14:04.226Z,41
2023-04-15T03:19:06.490Z,41
2023-04-15T03:24:08.614Z,41
2023-04-15T03:29:10.859Z,41
2023-04-15T03:34:14.413Z,41
2023-04-15T03:39:21.210Z,41
2023-04-15T03:44:23.290Z,41
2023-04-15T03:49:27.116Z,41
2023-04-15T03:54:29.194Z,41
2023-04-15T03:59:31.306Z,41
2023-04-15T04:04:34.309Z,41
2023-04-15T04:09:36.324Z,41
2023-04-15T04:14:39.157Z,41
2023-04-15T04:19:42.015Z,42
2023-04-15T04:24:44.154Z,42
2023-04-15T04:29:47.017Z,42
2023-04-15T04:34:49.927Z,43
2023-04-15T04:39:52.098Z,44
2023-04-15T04:45:00.240Z,44
2023-04-15T04:50:02.376Z,44
2023-04-15T04:55:04.562Z,44
2023-04-15T05:00:06.620Z,43
2023-04-15T05:05:08.733Z,42
2023-04-15T05:10:11.649Z,41
2023-04-15T05:15:15.413Z,41
2023-04-15T05:20:17.512Z,40
2023-04-15T05:25:20.389Z,40
2023-04-15T05:30:23.244Z,40
2023-04-15T05:35:25.368Z,40
2023-04-15T05:40:28.284Z,40
2023-04-15T05:45:31.214Z,40
2023-04-15T05:50:33.336Z,40
2023-04-15T05:55:35.489Z,40
2023-04-15T06:00:37.577Z,41
2023-04-15T06:05:46.171Z,41
2023-04-15T06:10:48.316Z,41
2023-04-15T06:15:51.314Z,41
2023-04-15T06:20:53.433Z,41
2023-04-15T06:25:56.346Z,41
2023-04-15T06:30:59.957Z,41
2023-04-15T06:36:02.833Z,42
2023-04-15T06:41:06.493Z,42
2023-04-15T06:46:08.847Z,42
2023-04-15T06:51:14.067Z,42
2023-04-15T06:56:17.017Z,42
2023-04-15T07:01:23.818Z,42
2023-04-15T07:06:25.910Z,42
2023-04-15T07:11:28.065Z,43
2023-04-15T07:16:30.979Z,43
2023-04-15T07:21:33.190Z,43
2023-04-15T07:26:36.189Z,43
2023-04-15T07:31:39.766Z,43
2023-04-15T07:36:41.908Z,43
2023-04-15T07:41:45.752Z,43
2023-04-15T07:46:47.801Z,44
2023-04-15T07:51:49.922Z,44
2023-04-15T07:56:52.993Z,44
2023-04-15T08:01:55.059Z,44
2023-04-15T08:07:00.275Z,45
2023-04-15T08:12:02.464Z,45
2023-04-15T08:17:05.264Z,45
2023-04-15T08:22:10.334Z,46
2023-04-15T08:27:12.745Z,46
2023-04-15T08:32:14.890Z,46
2023-04-15T08:37:16.995Z,46
2023-04-15T08:42:19.266Z,46
2023-04-15T08:47:21.418Z,46
2023-04-15T08:52:26.608Z,46
2023-04-15T08:57:28.811Z,46
2023-04-15T09:02:31.244Z,46
2023-04-15T09:07:34.066Z,46
2023-04-15T09:12:40.944Z,46
2023-04-15T09:17:43.049Z,45
2023-04-15T09:22:51.141Z,45
2023-04-15T09:27:53.507Z,45
2023-04-15T09:32:55.721Z,45
2023-04-15T09:37:57.953Z,45
2023-04-15T09:43:03.346Z,45
2023-04-15T09:48:06.322Z,45
2023-04-15T09:53:13.133Z,45
2023-04-15T09:58:16.055Z,45
2023-04-15T10:03:19.904Z,45
2023-04-15T10:08:22.676Z,45
2023-04-15T10:13:24.857Z,44
2023-04-15T10:18:27.120Z,43
2023-04-15T10:23:29.259Z,42
2023-04-15T10:28:31.603Z,42
2023-04-15T10:33:35.166Z,42
2023-04-15T10:38:38.055Z,42
2023-04-15T10:43:41.164Z,42
2023-04-15T10:48:43.250Z,42
2023-04-15T10:53:45.380Z,42
2023-04-15T10:58:48.322Z,42
2023-04-15T11:03:50.568Z,42
2023-04-15T11:08:52.501Z,43
2023-04-15T11:13:56.325Z,43
2023-04-15T11:18:58.365Z,42
2023-04-15T11:24:02.250Z,42
2023-04-15T11:29:03.843Z,42
2023-04-15T11:34:06.662Z,43
2023-04-15T11:39:09.598Z,43
2023-04-15T11:44:12.525Z,43
2023-04-15T11:49:14.633Z,43
2023-04-15T11:54:16.763Z,43
2023-04-15T11:59:19.670Z,42
2023-04-15T12:04:25.331Z,42
2023-04-15T12:09:26.264Z,41
2023-04-15T12:14:28.675Z,41
2023-04-15T12:19:31.778Z,40
2023-04-15T12:24:33.845Z,40
2023-04-15T12:29:35.993Z,40
2023-04-15T12:34:38.308Z,40
2023-04-15T12:39:40.496Z,40
2023-04-15T12:44:47.279Z,40
2023-04-15T12:49:49.514Z,40
2023-04-15T12:54:51.683Z,39
2023-04-15T12:59:55.303Z,39
2023-04-15T13:05:02.179Z,39
2023-04-15T13:10:04.273Z,39
2023-04-15T13:15:11.058Z,39
2023-04-15T13:20:13.144Z,39
2023-04-15T13:25:15.374Z,38
2023-04-15T13:30:17.649Z,38
2023-04-15T13:35:19.737Z,38
2023-04-15T13:40:23.457Z,37
2023-04-15T13:45:25.792Z,37
2023-04-15T13:50:27.796Z,37
2023-04-15T13:55:30.803Z,36
2023-04-15T14:00:33.106Z,36
2023-04-15T14:05:36.869Z,36
2023-04-15T14:10:40.454Z,36
2023-04-15T14:15:44.849Z,36
2023-04-15T14:20:47.006Z,36
2023-04-15T14:25:49.881Z,36
2023-04-15T14:30:52.252Z,36
2023-04-15T14:35:54.444Z,36
2023-04-15T14:41:01.195Z,36
2023-04-15T14:46:04.120Z,36
2023-04-15T14:51:06.187Z,36
2023-04-15T14:56:09.087Z,36
2023-04-15T15:01:13.064Z,36
2023-04-15T15:06:15.187Z,36
2023-04-15T15:11:17.404Z,36
2023-04-15T15:16:20.431Z,35
2023-04-15T15:21:22.467Z,35
2023-04-15T15:26:26.902Z,35
2023-04-15T15:31:31.357Z,35
2023-04-15T15:36:34.055Z,35
2023-04-15T15:41:36.191Z,35
2023-04-15T15:46:38.349Z,35
2023-04-15T15:51:41.347Z,35
2023-04-15T15:56:43.471Z,35
2023-04-15T16:01:45.692Z,35
2023-04-15T16:06:48.555Z,35
2023-04-15T16:11:51.368Z,35
2023-04-15T16:16:54.506Z,34
2023-04-15T16:21:57.290Z,34
2023-04-15T16:26:59.440Z,34
2023-04-15T16:32:03.240Z,34
2023-04-15T16:37:05.300Z,34
2023-04-15T16:42:09.695Z,34
2023-04-15T16:47:12.891Z,34
2023-04-15T16:52:15.592Z,34
2023-04-15T16:57:19.307Z,34
2023-04-15T17:02:21.537Z,34
2023-04-15T17:07:23.789Z,34
2023-04-15T17:12:28.408Z,34
2023-04-15T17:22:42.539Z,34
2023-04-15T17:27:44.620Z,34
2023-04-15T17:32:46.828Z,34
2023-04-15T17:37:52.192Z,34
2023-04-15T17:42:54.296Z,34
2023-04-15T17:47:56.625Z,35
2023-04-15T17:52:58.681Z,35
2023-04-15T17:58:01.548Z,35
2023-04-15T18:03:03.737Z,35
2023-04-15T18:08:05.837Z,36
2023-04-15T18:13:07.972Z,37
2023-04-15T18:18:10.839Z,37
2023-04-15T18:23:12.988Z,37
2023-04-15T18:28:15.841Z,38
2023-04-15T18:33:18.001Z,38
2023-04-15T18:38:20.204Z,38
2023-04-15T18:43:23.051Z,38
2023-04-15T18:48:26.776Z,38
2023-04-15T18:53:29.673Z,39
2023-04-15T18:59:09.132Z,39
2023-04-15T19:03:34.661Z,38
2023-04-15T19:08:36.895Z,38
2023-04-15T19:13:39.797Z,38
2023-04-15T19:18:42.834Z,37
2023-04-15T19:23:45.110Z,37
2023-04-15T19:28:47.282Z,36
2023-04-15T19:33:50.299Z,36
2023-04-15T19:38:53.359Z,36
2023-04-15T19:44:00.244Z,36
2023-04-15T19:49:04.937Z,36
2023-04-15T19:54:08.345Z,36
2023-04-15T19:59:15.238Z,36
2023-04-15T20:04:17.596Z,36
2023-04-15T20:09:19.632Z,36
2023-04-15T20:14:22.543Z,36
2023-04-15T20:19:25.449Z,36
2023-04-15T20:24:27.743Z,37
2023-04-15T20:29:30.683Z,37
2023-04-15T20:34:34.310Z,37
2023-04-15T20:39:38.153Z,37
2023-04-15T20:44:40.985Z,37
2023-04-15T20:49:43.287Z,37
2023-04-15T20:54:46.860Z,37
2023-04-15T20:59:48.981Z,37
2023-04-15T21:04:53.358Z,37
2023-04-15T21:10:00.208Z,37
2023-04-15T21:15:08.881Z,37
2023-04-15T21:20:11.760Z,37
2023-04-15T21:25:14.824Z,37
2023-04-15T21:30:17.132Z,37
2023-04-15T21:35:19.193Z,37
2023-04-15T21:40:22.276Z,37
2023-04-15T21:45:25.104Z,37
2023-04-15T21:50:27.992Z,36
2023-04-15T21:55:30.268Z,36
2023-04-15T22:00:35.562Z,36
2023-04-15T22:05:37.832Z,36
2023-04-15T22:10:40.744Z,36
2023-04-15T22:15:42.831Z,36
2023-04-15T22:20:44.946Z,36
2023-04-15T22:25:47.288Z,36
2023-04-15T22:30:50.183Z,36
2023-04-15T22:35:53.051Z,36
2023-04-15T22:40:56.687Z,36
2023-04-15T22:46:03.704Z,36
2023-04-15T22:51:10.423Z,36
2023-04-15T22:56:12.563Z,36
2023-04-15T23:01:14.774Z,36
2023-04-15T23:06:16.795Z,36
2023-04-15T23:11:21.431Z,36
2023-04-15T23:16:23.687Z,36
2023-04-15T23:21:27.394Z,36
2023-04-15T23:26:29.567Z,36
2023-04-15T23:31:31.698Z,36
2023-04-15T23:36:38.562Z,36
2023-04-15T23:41:41.591Z,36
2023-04-15T23:46:44.406Z,37
2023-04-15T23:51:46.546Z,37
2023-04-15T23:56:49.449Z,37
